createdAt,value
2023-03-06T00:00:29.780Z,2.70
2023-03-06T00:02:57.053Z,2.30
2023-03-06T00:05:24.000Z,3.58
2023-03-06T00:07:50.488Z,2.95
2023-03-06T00:10:20.033Z,2.83
2023-03-06T00:12:46.634Z,3.95
2023-03-06T00:15:13.709Z,3.55
2023-03-06T00:17:40.678Z,2.75
2023-03-06T00:20:10.244Z,2.30
2023-03-06T00:22:36.708Z,2.65
2023-03-06T00:25:03.539Z,2.17
2023-03-06T00:27:31.047Z,3.00
2023-03-06T00:29:58.306Z,2.90
2023-03-06T00:32:25.492Z,2.78
2023-03-06T00:34:52.771Z,2.58
2023-03-06T00:37:19.672Z,2.50
2023-03-06T00:39:46.572Z,2.97
2023-03-06T00:42:13.171Z,3.28
2023-03-06T00:44:39.644Z,1.80
2023-03-06T00:47:06.356Z,2.53
2023-03-06T00:49:32.881Z,2.42
2023-03-06T00:51:59.336Z,3.00
2023-03-06T00:54:25.882Z,2.20
2023-03-06T00:56:52.416Z,2.67
2023-03-06T00:59:18.986Z,2.60
2023-03-06T01:01:45.543Z,3.78
2023-03-06T01:04:12.125Z,3.22
2023-03-06T01:06:38.680Z,3.45
2023-03-06T01:09:05.399Z,2.88
2023-03-06T01:11:31.975Z,2.97
2023-03-06T01:13:58.560Z,3.33
2023-03-06T01:16:25.062Z,2.85
2023-03-06T01:18:51.774Z,3.50
2023-03-06T01:21:18.422Z,3.72
2023-03-06T01:23:44.962Z,3.35
2023-03-06T01:26:11.465Z,3.38
2023-03-06T01:28:39.110Z,4.18
2023-03-06T01:31:06.629Z,4.10
2023-03-06T01:33:33.694Z,3.72
2023-03-06T01:36:00.306Z,4.95
2023-03-06T01:38:26.874Z,3.60
2023-03-06T01:40:53.370Z,4.60
2023-03-06T01:43:26.244Z,4.30
2023-03-06T01:45:52.964Z,4.35
2023-03-06T01:48:22.207Z,4.70
2023-03-06T01:50:50.024Z,4.88
2023-03-06T01:53:17.165Z,4.93
2023-03-06T01:55:43.632Z,6.25
2023-03-06T01:58:14.154Z,4.68
2023-03-06T02:00:40.663Z,5.70
2023-03-06T02:03:10.956Z,4.60
2023-03-06T02:05:38.591Z,5.03
2023-03-06T02:08:05.835Z,4.72
2023-03-06T02:10:33.049Z,5.13
2023-03-06T02:12:59.819Z,4.57
2023-03-06T02:15:27.994Z,5.50
2023-03-06T02:17:54.836Z,5.55
2023-03-06T02:20:44.205Z,4.45
2023-03-06T02:23:47.562Z,4.75
2023-03-06T02:26:15.143Z,5.97
2023-03-06T02:28:41.968Z,4.88
2023-03-06T02:31:08.754Z,5.50
2023-03-06T02:33:35.209Z,4.57
2023-03-06T02:36:04.653Z,5.97
2023-03-06T02:38:37.751Z,5.20
2023-03-06T02:41:07.411Z,5.47
2023-03-06T02:43:37.198Z,4.05
2023-03-06T02:46:03.750Z,4.88
2023-03-06T02:48:30.165Z,4.43
2023-03-06T02:50:56.609Z,4.30
2023-03-06T02:53:23.439Z,3.42
2023-03-06T02:55:50.393Z,3.33
2023-03-06T02:58:19.725Z,3.90
2023-03-06T03:00:47.429Z,4.32
2023-03-06T03:03:14.004Z,3.55
2023-03-06T03:05:40.437Z,3.40
2023-03-06T03:08:06.898Z,4.13
2023-03-06T03:10:33.359Z,4.72
2023-03-06T03:12:59.815Z,3.38
2023-03-06T03:15:26.348Z,3.10
2023-03-06T03:17:53.099Z,4.15
2023-03-06T03:20:21.342Z,3.22
2023-03-06T03:22:53.296Z,3.00
2023-03-06T03:25:23.452Z,3.13
2023-03-06T03:27:50.117Z,2.75
2023-03-06T03:30:16.864Z,2.83
2023-03-06T03:32:43.469Z,3.78
2023-03-06T03:35:11.188Z,2.38
2023-03-06T03:37:38.091Z,2.58
2023-03-06T03:40:06.605Z,3.97
2023-03-06T03:42:33.377Z,3.30
2023-03-06T03:44:59.880Z,3.13
2023-03-06T03:47:26.347Z,2.95
2023-03-06T03:49:52.819Z,3.20
2023-03-06T03:52:19.240Z,3.00
2023-03-06T03:54:45.776Z,3.33
2023-03-06T03:57:12.274Z,3.00
2023-03-06T03:59:38.717Z,2.80
2023-03-06T04:02:05.306Z,2.45
2023-03-06T04:04:32.022Z,2.47
2023-03-06T04:06:58.530Z,3.35
2023-03-06T04:09:25.102Z,2.50
2023-03-06T04:11:51.610Z,2.17
2023-03-06T04:14:18.061Z,1.95
2023-03-06T04:16:44.679Z,2.35
2023-03-06T04:19:11.664Z,2.08
2023-03-06T04:21:38.224Z,2.13
2023-03-06T04:24:05.199Z,2.30
2023-03-06T04:26:31.904Z,2.30
2023-03-06T04:28:58.617Z,2.78
2023-03-06T04:31:25.160Z,1.88
2023-03-06T04:33:51.672Z,2.10
2023-03-06T04:36:32.417Z,2.60
2023-03-06T04:38:59.423Z,2.40
2023-03-06T04:41:26.041Z,2.35
2023-03-06T04:43:52.714Z,2.22
2023-03-06T04:46:19.440Z,3.45
2023-03-06T04:48:45.907Z,2.42
2023-03-06T04:51:13.322Z,2.47
2023-03-06T04:53:39.844Z,2.08
2023-03-06T04:56:06.821Z,2.22
2023-03-06T04:58:33.304Z,2.03
2023-03-06T05:00:59.808Z,1.90
2023-03-06T05:03:26.277Z,1.70
2023-03-06T05:05:52.742Z,2.00
2023-03-06T05:08:19.194Z,1.75
2023-03-06T05:10:45.830Z,3.58
2023-03-06T05:13:12.531Z,1.90
2023-03-06T05:15:42.183Z,3.25
2023-03-06T05:18:08.670Z,2.78
2023-03-06T05:20:35.206Z,2.53
2023-03-06T05:23:01.716Z,2.55
2023-03-06T05:25:28.164Z,2.15
2023-03-06T05:27:54.697Z,3.13
2023-03-06T05:30:23.106Z,2.10
2023-03-06T05:32:49.894Z,2.03
2023-03-06T05:35:21.557Z,3.00
2023-03-06T05:37:48.673Z,3.15
2023-03-06T05:40:16.069Z,2.47
2023-03-06T05:42:42.527Z,2.00
2023-03-06T05:45:09.750Z,2.40
2023-03-06T05:47:36.501Z,2.55
2023-03-06T05:50:04.280Z,2.30
2023-03-06T05:52:30.816Z,3.13
2023-03-06T05:54:57.304Z,2.10
2023-03-06T05:57:24.281Z,3.10
2023-03-06T05:59:50.982Z,2.75
2023-03-06T06:02:18.858Z,2.42
2023-03-06T06:04:45.671Z,3.60
2023-03-06T06:07:16.874Z,2.70
2023-03-06T06:09:45.382Z,3.22
2023-03-06T06:12:12.922Z,3.08
2023-03-06T06:14:39.522Z,1.98
2023-03-06T06:17:06.011Z,2.03
2023-03-06T06:19:32.754Z,2.17
2023-03-06T06:21:59.290Z,2.85
2023-03-06T06:24:26.408Z,2.38
2023-03-06T06:26:54.723Z,2.60
2023-03-06T06:29:22.259Z,2.50
2023-03-06T06:31:49.377Z,2.60
2023-03-06T06:34:16.153Z,1.75
2023-03-06T06:36:42.761Z,2.88
2023-03-06T06:39:09.510Z,2.10
2023-03-06T06:41:59.368Z,2.78
2023-03-06T06:44:22.463Z,2.75
2023-03-06T06:47:21.156Z,3.40
2023-03-06T06:49:36.858Z,2.55
2023-03-06T06:52:04.705Z,2.65
2023-03-06T06:54:32.173Z,2.83
2023-03-06T06:56:59.028Z,2.05
2023-03-06T06:59:25.521Z,2.55
2023-03-06T07:01:52.707Z,3.30
2023-03-06T07:04:19.814Z,1.77
2023-03-06T07:06:46.390Z,1.75
2023-03-06T07:09:13.853Z,1.83
2023-03-06T07:11:41.216Z,2.92
2023-03-06T07:14:07.863Z,2.20
2023-03-06T07:16:34.381Z,1.63
2023-03-06T07:19:00.917Z,2.13
2023-03-06T07:21:27.360Z,2.25
2023-03-06T07:23:54.362Z,2.13
2023-03-06T07:26:20.890Z,2.72
2023-03-06T07:28:52.716Z,2.17
2023-03-06T07:31:22.092Z,2.53
2023-03-06T07:33:49.803Z,2.72
2023-03-06T07:36:16.709Z,3.20
2023-03-06T07:38:43.234Z,1.88
2023-03-06T07:41:13.671Z,5.93
2023-03-06T07:43:41.195Z,2.10
2023-03-06T07:46:08.355Z,1.73
2023-03-06T07:48:35.396Z,2.17
2023-03-06T07:51:04.702Z,1.92
2023-03-06T07:53:31.772Z,1.52
2023-03-06T07:55:58.331Z,1.52
2023-03-06T07:58:25.357Z,2.00
2023-03-06T08:00:52.081Z,2.05
2023-03-06T08:03:18.875Z,2.03
2023-03-06T08:05:45.549Z,1.80
2023-03-06T08:08:12.475Z,1.80
2023-03-06T08:10:38.970Z,1.98
2023-03-06T08:13:05.506Z,2.28
2023-03-06T08:15:31.941Z,2.15
2023-03-06T08:17:58.496Z,1.58
2023-03-06T08:20:25.000Z,1.20
2023-03-06T08:22:51.538Z,1.80
2023-03-06T08:25:18.195Z,1.50
2023-03-06T08:27:46.744Z,1.05
2023-03-06T08:30:13.765Z,1.30
2023-03-06T08:32:40.480Z,1.23
2023-03-06T08:35:07.704Z,1.58
2023-03-06T08:37:34.267Z,1.45
2023-03-06T08:40:03.541Z,1.38
2023-03-06T08:42:30.603Z,1.58
2023-03-06T08:44:57.100Z,1.33
2023-03-06T08:47:23.580Z,1.05
2023-03-06T08:49:50.164Z,1.58
2023-03-06T08:52:17.035Z,1.40
2023-03-06T08:54:43.532Z,0.88
2023-03-06T08:57:10.067Z,1.77
2023-03-06T08:59:36.969Z,1.52
2023-03-06T09:02:05.388Z,0.77
2023-03-06T09:04:32.014Z,1.63
2023-03-06T09:07:00.484Z,1.45
2023-03-06T09:09:26.943Z,1.35
2023-03-06T09:11:53.623Z,1.38
2023-03-06T09:14:20.119Z,1.05
2023-03-06T09:16:46.759Z,0.90
2023-03-06T09:19:13.304Z,0.90
2023-03-06T09:21:39.756Z,0.70
2023-03-06T09:24:06.497Z,1.00
2023-03-06T09:26:44.961Z,1.33
2023-03-06T09:29:12.896Z,1.30
2023-03-06T09:31:39.444Z,0.98
2023-03-06T09:34:06.023Z,1.02
2023-03-06T09:36:40.116Z,0.65
2023-03-06T09:39:12.358Z,0.57
2023-03-06T09:41:41.125Z,1.30
2023-03-06T09:44:22.268Z,0.90
2023-03-06T09:47:11.292Z,0.80
2023-03-06T09:49:43.946Z,0.98
2023-03-06T09:52:31.017Z,1.25
2023-03-06T09:55:12.924Z,1.42
2023-03-06T09:57:55.056Z,1.52
2023-03-06T10:00:28.489Z,1.50
2023-03-06T10:03:14.413Z,1.20
2023-03-06T10:05:53.994Z,1.40
2023-03-06T10:08:42.650Z,1.50
2023-03-06T10:11:11.003Z,0.88
2023-03-06T10:13:40.426Z,1.20
2023-03-06T10:16:29.161Z,1.17
2023-03-06T10:18:59.551Z,0.40
2023-03-06T10:21:44.300Z,0.75
2023-03-06T10:24:22.544Z,0.85
2023-03-06T10:26:55.114Z,1.58
2023-03-06T10:29:39.292Z,0.65
2023-03-06T10:32:13.686Z,0.60
2023-03-06T10:34:40.754Z,0.65
2023-03-06T10:37:19.562Z,0.50
2023-03-06T10:39:46.606Z,0.77
2023-03-06T10:42:13.314Z,1.20
2023-03-06T10:44:39.811Z,1.40
2023-03-06T10:47:29.882Z,1.25
2023-03-06T10:49:59.233Z,0.75
2023-03-06T10:52:29.151Z,1.27
2023-03-06T10:55:15.358Z,1.95
2023-03-06T10:57:41.772Z,0.82
2023-03-06T11:00:30.049Z,0.90
2023-03-06T11:03:16.444Z,0.80
2023-03-06T11:06:03.985Z,0.88
2023-03-06T11:08:31.114Z,0.77
2023-03-06T11:11:22.449Z,1.27
2023-03-06T11:13:58.907Z,0.52
2023-03-06T11:16:33.125Z,1.08
2023-03-06T11:19:06.871Z,1.13
2023-03-06T11:21:35.080Z,0.43
2023-03-06T11:24:06.153Z,0.70
2023-03-06T11:26:36.998Z,1.13
2023-03-06T11:29:26.872Z,0.93
2023-03-06T11:32:12.555Z,1.58
2023-03-06T11:34:41.819Z,0.93
2023-03-06T11:37:20.942Z,1.20
2023-03-06T11:40:02.891Z,2.10
2023-03-06T11:42:32.935Z,0.63
2023-03-06T11:45:29.110Z,1.00
2023-03-06T11:48:13.951Z,0.65
2023-03-06T11:50:45.725Z,1.25
2023-03-06T11:53:24.179Z,0.90
2023-03-06T11:56:12.587Z,0.90
2023-03-06T11:59:23.553Z,2.75
2023-03-06T12:02:11.857Z,0.55
2023-03-06T12:04:48.129Z,1.25
2023-03-06T12:07:33.368Z,0.77
2023-03-06T12:10:09.063Z,0.57
2023-03-06T12:12:38.216Z,2.15
2023-03-06T12:15:07.912Z,1.80
2023-03-06T12:17:40.674Z,2.85
2023-03-06T12:20:48.536Z,0.70
2023-03-06T12:23:42.341Z,2.92
2023-03-06T12:26:32.111Z,4.57
2023-03-06T12:29:28.581Z,31.38
2023-03-06T12:31:57.615Z,0.80
2023-03-06T12:34:43.048Z,1.10
2023-03-06T12:37:17.485Z,0.75
2023-03-06T12:40:11.885Z,1.38
2023-03-06T12:43:06.394Z,7.60
2023-03-06T12:45:34.196Z,0.68
2023-03-06T12:48:01.965Z,2.20
2023-03-06T12:50:31.653Z,9.57
2023-03-06T12:53:02.161Z,4.70
2023-03-06T12:55:38.876Z,0.73
2023-03-06T12:58:30.440Z,0.90
2023-03-06T13:01:06.130Z,0.43
2023-03-06T13:04:10.880Z,1.92
2023-03-06T13:06:55.988Z,0.75
2023-03-06T13:09:29.763Z,0.80
2023-03-06T13:12:12.608Z,1.23
2023-03-06T13:14:42.259Z,0.75
2023-03-06T13:17:23.916Z,0.52
2023-03-06T13:20:13.003Z,0.73
2023-03-06T13:22:40.912Z,0.95
2023-03-06T13:25:19.649Z,0.60
2023-03-06T13:27:51.998Z,0.75
2023-03-06T13:30:36.947Z,0.68
2023-03-06T13:33:36.302Z,0.50
2023-03-06T13:36:22.962Z,0.63
2023-03-06T13:38:49.389Z,0.60
2023-03-06T13:41:24.922Z,0.50
2023-03-06T13:43:53.376Z,0.52
2023-03-06T13:46:24.989Z,0.50
2023-03-06T13:49:00.884Z,0.60
2023-03-06T13:51:28.391Z,1.10
2023-03-06T13:54:13.698Z,0.73
2023-03-06T13:56:55.537Z,0.80
2023-03-06T13:59:30.187Z,0.60
2023-03-06T14:02:02.544Z,0.70
2023-03-06T14:04:32.016Z,0.40
2023-03-06T14:07:08.278Z,0.77
2023-03-06T14:09:37.443Z,1.02
2023-03-06T14:12:23.598Z,0.90
2023-03-06T14:14:56.606Z,0.80
2023-03-06T14:17:35.018Z,0.55
2023-03-06T14:20:12.722Z,0.63
2023-03-06T14:22:39.186Z,0.60
2023-03-06T14:25:14.260Z,0.40
2023-03-06T14:27:48.303Z,0.70
2023-03-06T14:30:21.058Z,0.52
2023-03-06T14:32:49.899Z,0.30
2023-03-06T14:35:28.896Z,0.63
2023-03-06T14:38:04.407Z,0.70
2023-03-06T14:40:43.328Z,0.70
2023-03-06T14:43:26.919Z,0.50
2023-03-06T14:46:01.699Z,1.35
2023-03-06T14:48:42.953Z,0.60
2023-03-06T14:51:23.735Z,0.28
2023-03-06T14:53:51.194Z,0.40
2023-03-06T14:56:22.580Z,0.40
2023-03-06T14:58:52.118Z,0.40
2023-03-06T15:01:25.052Z,0.40
2023-03-06T15:03:53.440Z,0.63
2023-03-06T15:06:25.578Z,0.60
2023-03-06T15:09:16.798Z,0.35
2023-03-06T15:12:02.714Z,0.45
2023-03-06T15:14:33.989Z,0.40
2023-03-06T15:17:19.019Z,0.60
2023-03-06T15:19:47.166Z,0.52
2023-03-06T15:22:25.700Z,0.40
2023-03-06T15:24:52.212Z,0.50
2023-03-06T15:27:21.485Z,0.63
2023-03-06T15:29:47.941Z,0.90
2023-03-06T15:32:23.422Z,0.50
2023-03-06T15:35:25.650Z,1.15
2023-03-06T15:37:52.645Z,0.70
2023-03-06T15:40:21.399Z,1.85
2023-03-06T15:42:49.947Z,1.33
2023-03-06T15:45:21.822Z,0.52
2023-03-06T15:47:50.317Z,2.33
2023-03-06T15:50:22.745Z,1.55
2023-03-06T15:52:49.950Z,0.95
2023-03-06T15:55:20.744Z,1.00
2023-03-06T15:58:07.672Z,0.70
2023-03-06T16:00:35.600Z,0.77
2023-03-06T16:03:02.959Z,1.70
2023-03-06T16:05:29.855Z,1.70
2023-03-06T16:07:56.724Z,0.88
2023-03-06T16:10:26.011Z,0.52
2023-03-06T16:12:55.401Z,0.88
2023-03-06T16:15:25.373Z,0.22
2023-03-06T16:17:51.840Z,0.50
2023-03-06T16:20:24.730Z,1.02
2023-03-06T16:22:51.428Z,0.93
2023-03-06T16:25:18.235Z,0.73
2023-03-06T16:27:49.903Z,1.08
2023-03-06T16:30:18.694Z,1.00
2023-03-06T16:32:45.682Z,0.55
2023-03-06T16:35:13.202Z,0.68
2023-03-06T16:37:40.691Z,1.35
2023-03-06T16:40:29.291Z,0.55
2023-03-06T16:42:56.124Z,1.15
2023-03-06T16:45:23.691Z,0.20
2023-03-06T16:47:50.611Z,0.80
2023-03-06T16:50:29.990Z,0.80
2023-03-06T16:52:57.872Z,0.80
2023-03-06T16:55:26.291Z,0.98
2023-03-06T16:57:53.432Z,0.60
2023-03-06T17:00:20.863Z,0.50
2023-03-06T17:02:52.215Z,1.27
2023-03-06T17:05:19.425Z,0.80
2023-03-06T17:07:46.067Z,0.68
2023-03-06T17:10:15.806Z,0.52
2023-03-06T17:12:42.937Z,0.73
2023-03-06T17:15:10.887Z,1.08
2023-03-06T17:17:37.741Z,1.02
2023-03-06T17:20:05.708Z,0.90
2023-03-06T17:22:35.937Z,1.00
2023-03-06T17:25:04.766Z,1.27
2023-03-06T17:27:31.207Z,0.73
2023-03-06T17:29:58.061Z,0.93
2023-03-06T17:32:24.609Z,0.90
2023-03-06T17:34:51.122Z,1.02
2023-03-06T17:37:17.711Z,0.60
2023-03-06T17:39:44.193Z,0.70
2023-03-06T17:42:10.851Z,0.90
2023-03-06T17:44:37.844Z,1.33
2023-03-06T17:47:04.773Z,0.43
2023-03-06T17:49:31.443Z,0.88
2023-03-06T17:51:59.812Z,1.52
2023-03-06T17:54:26.745Z,0.82
2023-03-06T17:56:53.679Z,0.68
2023-03-06T17:59:20.107Z,1.88
2023-03-06T18:01:46.815Z,1.85
2023-03-06T18:04:13.496Z,0.82
2023-03-06T18:06:39.975Z,0.50
2023-03-06T18:09:06.506Z,0.57
2023-03-06T18:11:33.118Z,1.23
2023-03-06T18:13:59.585Z,1.48
2023-03-06T18:16:26.859Z,1.85
2023-03-06T18:18:54.750Z,1.83
2023-03-06T18:21:22.378Z,2.20
2023-03-06T18:23:48.929Z,2.13
2023-03-06T18:26:33.538Z,2.40
2023-03-06T18:29:03.577Z,2.33
2023-03-06T18:31:34.061Z,2.75
2023-03-06T18:34:02.963Z,2.63
2023-03-06T18:36:31.685Z,2.30
2023-03-06T18:38:58.644Z,2.40
2023-03-06T18:41:25.200Z,2.88
2023-03-06T18:43:55.928Z,3.03
2023-03-06T18:46:22.814Z,2.45
2023-03-06T18:48:49.372Z,3.42
2023-03-06T18:51:16.701Z,2.97
2023-03-06T18:53:44.018Z,3.65
2023-03-06T18:56:16.593Z,3.50
2023-03-06T18:58:43.813Z,3.97
2023-03-06T19:01:10.497Z,3.55
2023-03-06T19:03:37.234Z,4.60
2023-03-06T19:06:06.012Z,3.92
2023-03-06T19:08:32.867Z,4.30
2023-03-06T19:11:04.631Z,4.72
2023-03-06T19:13:31.374Z,5.20
2023-03-06T19:15:58.164Z,5.90
2023-03-06T19:18:26.015Z,3.92
2023-03-06T19:20:53.155Z,4.28
2023-03-06T19:23:21.127Z,4.28
2023-03-06T19:25:57.881Z,5.85
2023-03-06T19:30:50.849Z,4.60
2023-03-06T19:33:17.657Z,5.68
2023-03-06T19:35:44.188Z,5.13
2023-03-06T19:38:10.749Z,4.88
2023-03-06T19:40:37.455Z,5.70
2023-03-06T19:43:04.037Z,5.18
2023-03-06T19:45:30.523Z,6.28
2023-03-06T19:48:00.918Z,5.47
2023-03-06T19:50:30.959Z,5.53
2023-03-06T19:52:57.857Z,5.70
2023-03-06T19:55:26.272Z,6.38
2023-03-06T19:57:53.038Z,6.45
2023-03-06T20:00:19.876Z,6.53
2023-03-06T20:02:46.546Z,6.95
2023-03-06T20:05:13.064Z,5.78
2023-03-06T20:07:39.517Z,5.90
2023-03-06T20:10:06.477Z,6.60
2023-03-06T20:12:33.400Z,7.35
2023-03-06T20:15:00.193Z,6.85
2023-03-06T20:17:26.700Z,5.65
2023-03-06T20:19:53.592Z,6.40
2023-03-06T20:22:20.100Z,6.75
2023-03-06T20:24:46.898Z,7.50
2023-03-06T20:27:13.685Z,7.10
2023-03-06T20:29:44.551Z,6.35
2023-03-06T20:32:12.410Z,8.13
2023-03-06T20:34:39.639Z,6.80
2023-03-06T20:37:07.751Z,6.30
2023-03-06T20:39:34.855Z,6.82
2023-03-06T20:42:02.143Z,6.60
2023-03-06T20:44:28.845Z,6.78
2023-03-06T20:46:55.341Z,6.15
2023-03-06T20:49:22.337Z,5.65
2023-03-06T20:51:49.970Z,6.13
2023-03-06T20:54:16.942Z,6.22
2023-03-06T20:56:46.633Z,5.85
2023-03-06T20:59:13.882Z,6.35
2023-03-06T21:01:42.882Z,5.63
2023-03-06T21:04:11.193Z,5.40
2023-03-06T21:06:38.059Z,5.20
2023-03-06T21:09:06.108Z,5.45
2023-03-06T21:11:34.385Z,6.00
2023-03-06T21:14:01.147Z,7.03
2023-03-06T21:16:28.987Z,5.63
2023-03-06T21:18:56.198Z,5.35
2023-03-06T21:21:25.592Z,4.97
2023-03-06T21:23:52.211Z,4.68
2023-03-06T21:26:23.848Z,5.93
2023-03-06T21:28:50.705Z,5.05
2023-03-06T21:31:18.890Z,5.10
2023-03-06T21:33:46.374Z,4.70
2023-03-06T21:36:13.024Z,4.55
2023-03-06T21:38:39.578Z,4.82
2023-03-06T21:41:15.278Z,4.57
2023-03-06T21:43:42.585Z,4.55
2023-03-06T21:46:09.708Z,4.13
2023-03-06T21:48:36.478Z,5.18
2023-03-06T21:51:07.948Z,4.72
2023-03-06T21:53:34.576Z,5.18
2023-03-06T21:56:01.759Z,4.03
2023-03-06T21:58:28.719Z,4.72
2023-03-06T22:00:55.305Z,4.35
2023-03-06T22:03:21.991Z,5.53
2023-03-06T22:05:48.473Z,5.25
2023-03-06T22:08:14.932Z,3.85
2023-03-06T22:10:42.709Z,3.80
2023-03-06T22:13:09.234Z,3.78
2023-03-06T22:15:35.719Z,4.35
2023-03-06T22:18:02.170Z,4.18
2023-03-06T22:20:28.668Z,3.70
2023-03-06T22:22:55.166Z,4.00
2023-03-06T22:25:21.663Z,4.35
2023-03-06T22:27:48.164Z,3.33
2023-03-06T22:30:14.848Z,3.97
2023-03-06T22:32:41.358Z,4.40
2023-03-06T22:35:08.235Z,3.88
2023-03-06T22:37:34.694Z,3.22
2023-03-06T22:40:01.183Z,4.13
2023-03-06T22:42:27.684Z,3.70
2023-03-06T22:44:54.129Z,4.10
2023-03-06T22:47:20.585Z,3.80
2023-03-06T22:49:47.610Z,3.15
2023-03-06T22:52:15.240Z,3.42
2023-03-06T22:54:41.884Z,3.85
2023-03-06T22:57:08.329Z,3.67
2023-03-06T22:59:34.786Z,3.38
2023-03-06T23:02:01.303Z,3.50
2023-03-06T23:04:27.798Z,3.58
2023-03-06T23:06:54.349Z,3.50
2023-03-06T23:09:22.321Z,4.07
2023-03-06T23:11:49.395Z,3.40
2023-03-06T23:14:17.077Z,3.17
2023-03-06T23:16:43.668Z,3.22
2023-03-06T23:19:10.273Z,4.30
2023-03-06T23:21:36.778Z,3.58
2023-03-06T23:24:04.458Z,4.57
2023-03-06T23:26:31.740Z,4.82
2023-03-06T23:28:58.295Z,3.72
2023-03-06T23:31:30.590Z,5.07
2023-03-06T23:33:58.615Z,4.80
2023-03-06T23:36:25.122Z,5.68
2023-03-06T23:38:51.677Z,5.80
2023-03-06T23:41:19.638Z,5.28
2023-03-06T23:43:46.914Z,5.13
2023-03-06T23:46:13.873Z,4.90
2023-03-06T23:48:41.557Z,5.45
2023-03-06T23:51:17.042Z,4.70
2023-03-06T23:53:45.009Z,6.47
2023-03-06T23:56:11.849Z,6.07
2023-03-06T23:58:38.624Z,4.93
